createdAt,value
2019-03-09T00:01:49.936Z,20.40
2019-03-09T00:04:19.337Z,23.53
2019-03-09T00:06:48.745Z,18.33
2019-03-09T00:09:18.241Z,17.47
2019-03-09T00:11:47.680Z,25.67
2019-03-09T00:14:17.578Z,20.83
2019-03-09T00:16:47.115Z,20.53
2019-03-09T00:19:16.526Z,16.43
2019-03-09T00:21:45.953Z,20.33
2019-03-09T00:24:40.886Z,20.50
2019-03-09T00:27:29.915Z,17.67
2019-03-09T00:30:24.243Z,20.50
2019-03-09T00:32:53.593Z,19.23
2019-03-09T00:35:22.945Z,21.10
2019-03-09T00:37:52.385Z,18.90
2019-03-09T00:40:21.850Z,18.20
2019-03-09T00:42:51.238Z,18.53
2019-03-09T00:45:20.547Z,21.33
2019-03-09T00:47:50.016Z,15.73
2019-03-09T00:50:19.487Z,22.93
2019-03-09T00:52:49.056Z,21.17
2019-03-09T00:55:18.527Z,14.53
2019-03-09T00:57:47.858Z,19.20
2019-03-09T01:00:19.411Z,23.30
2019-03-09T01:02:50.943Z,22.00
2019-03-09T01:05:19.818Z,19.67
2019-03-09T01:07:49.200Z,28.70
2019-03-09T01:10:18.739Z,21.57
2019-03-09T01:12:48.161Z,20.13
2019-03-09T01:15:17.566Z,21.97
2019-03-09T01:17:46.929Z,17.80
2019-03-09T01:20:16.799Z,16.57
2019-03-09T01:22:46.311Z,17.47
2019-03-09T01:25:15.601Z,18.40
2019-03-09T01:27:44.882Z,14.07
2019-03-09T01:30:16.903Z,14.87
2019-03-09T01:32:46.349Z,20.07
2019-03-09T01:35:15.695Z,15.67
2019-03-09T01:37:45.077Z,24.27
2019-03-09T01:40:14.873Z,21.33
2019-03-09T01:42:45.178Z,27.50
2019-03-09T01:45:15.146Z,18.40
2019-03-09T01:47:44.658Z,24.17
2019-03-09T01:50:14.194Z,23.37
2019-03-09T01:52:43.717Z,16.50
2019-03-09T01:55:13.102Z,17.43
2019-03-09T01:57:42.452Z,19.87
2019-03-09T02:00:12.496Z,20.83
2019-03-09T02:02:41.992Z,15.43
2019-03-09T02:05:11.210Z,22.60
2019-03-09T02:07:40.621Z,16.17
2019-03-09T02:10:10.278Z,24.67
2019-03-09T02:12:39.723Z,20.17
2019-03-09T02:15:09.487Z,19.80
2019-03-09T02:17:39.081Z,24.37
2019-03-09T02:20:08.740Z,19.80
2019-03-09T02:22:38.118Z,18.10
2019-03-09T02:25:07.575Z,18.97
2019-03-09T02:27:36.993Z,21.57
2019-03-09T02:30:06.752Z,23.33
2019-03-09T02:32:36.190Z,23.70
2019-03-09T02:35:06.979Z,25.13
2019-03-09T02:37:36.323Z,12.03
2019-03-09T02:40:11.964Z,12.83
2019-03-09T02:42:41.401Z,27.27
2019-03-09T02:45:12.883Z,21.97
2019-03-09T02:47:42.237Z,20.53
2019-03-09T02:50:12.514Z,18.50
2019-03-09T02:52:41.948Z,17.83
2019-03-09T02:55:12.067Z,19.23
2019-03-09T02:57:41.483Z,19.70
2019-03-09T03:00:13.859Z,21.13
2019-03-09T03:03:02.303Z,20.60
2019-03-09T03:05:31.765Z,24.53
2019-03-09T03:08:01.125Z,22.90
2019-03-09T03:10:30.503Z,20.87
2019-03-09T03:12:59.953Z,13.27
2019-03-09T03:15:34.287Z,19.27
2019-03-09T03:18:03.662Z,21.47
2019-03-09T03:20:33.122Z,19.33
2019-03-09T03:23:02.527Z,22.00
2019-03-09T03:25:31.989Z,22.70
2019-03-09T03:28:01.333Z,21.30
2019-03-09T03:30:30.786Z,22.13
2019-03-09T03:33:00.447Z,23.33
2019-03-09T03:35:29.881Z,23.27
2019-03-09T03:37:59.243Z,19.13
2019-03-09T03:40:28.724Z,21.13
2019-03-09T03:42:58.119Z,22.97
2019-03-09T03:45:27.570Z,17.40
2019-03-09T03:47:57.050Z,18.67
2019-03-09T03:50:26.363Z,21.90
2019-03-09T03:52:55.761Z,26.93
2019-03-09T03:55:25.086Z,28.30
2019-03-09T03:57:54.510Z,22.70
2019-03-09T04:00:23.960Z,20.53
2019-03-09T04:02:53.419Z,19.87
2019-03-09T04:05:22.783Z,24.20
2019-03-09T04:07:52.289Z,23.47
2019-03-09T04:10:21.942Z,18.93
2019-03-09T04:12:51.895Z,21.63
2019-03-09T04:15:21.337Z,21.50
2019-03-09T04:17:50.729Z,24.67
2019-03-09T04:20:20.133Z,25.90
2019-03-09T04:22:49.734Z,23.00
2019-03-09T04:25:19.099Z,13.37
2019-03-09T04:27:48.524Z,23.07
2019-03-09T04:30:17.988Z,27.07
2019-03-09T04:32:47.400Z,21.10
2019-03-09T04:35:16.718Z,21.00
2019-03-09T04:37:46.171Z,17.63
2019-03-09T04:40:15.736Z,16.00
2019-03-09T04:42:45.082Z,21.13
2019-03-09T04:45:14.547Z,22.70
2019-03-09T04:47:43.989Z,28.43
2019-03-09T04:50:13.350Z,20.90
2019-03-09T04:52:42.695Z,22.63
2019-03-09T04:55:12.201Z,17.93
2019-03-09T04:57:41.719Z,23.37
2019-03-09T05:00:11.542Z,18.37
2019-03-09T05:02:40.877Z,16.20
2019-03-09T05:05:28.328Z,19.07
2019-03-09T05:08:01.875Z,15.40
2019-03-09T05:10:38.509Z,19.47
2019-03-09T05:13:14.553Z,18.70
2019-03-09T05:15:43.886Z,16.37
2019-03-09T05:18:13.243Z,17.03
2019-03-09T05:20:42.677Z,16.63
2019-03-09T05:23:12.015Z,14.73
2019-03-09T05:25:41.305Z,23.73
2019-03-09T05:28:10.667Z,20.10
2019-03-09T05:30:44.016Z,22.20
2019-03-09T05:33:13.445Z,21.23
2019-03-09T05:35:42.809Z,19.70
2019-03-09T05:38:12.198Z,20.80
2019-03-09T05:40:41.562Z,24.20
2019-03-09T05:43:11.036Z,21.90
2019-03-09T05:45:40.225Z,23.93
2019-03-09T05:48:09.524Z,24.53
2019-03-09T05:50:38.861Z,16.93
2019-03-09T05:53:26.041Z,21.43
2019-03-09T05:55:55.401Z,16.67
2019-03-09T05:58:24.758Z,25.23
2019-03-09T06:00:54.202Z,15.03
2019-03-09T06:03:23.675Z,22.77
2019-03-09T06:05:56.170Z,19.63
2019-03-09T06:08:25.471Z,19.60
2019-03-09T06:10:55.145Z,26.60
2019-03-09T06:13:24.633Z,22.80
2019-03-09T06:15:54.040Z,28.80
2019-03-09T06:18:23.481Z,25.53
2019-03-09T06:20:52.883Z,25.57
2019-03-09T06:23:22.342Z,19.97
2019-03-09T06:25:51.692Z,24.73
2019-03-09T06:28:21.169Z,27.87
2019-03-09T06:30:50.546Z,24.67
2019-03-09T06:33:27.687Z,25.33
2019-03-09T06:36:17.989Z,17.80
2019-03-09T06:39:01.689Z,18.57
2019-03-09T06:41:50.662Z,23.83
2019-03-09T06:44:20.020Z,19.50
2019-03-09T06:46:50.169Z,19.13
2019-03-09T06:49:19.587Z,27.83
2019-03-09T06:51:48.961Z,14.87
2019-03-09T06:54:18.483Z,16.07
2019-03-09T06:56:47.851Z,21.57
2019-03-09T06:59:17.135Z,25.23
2019-03-09T07:01:46.473Z,14.67
2019-03-09T07:04:15.898Z,23.07
2019-03-09T07:06:45.238Z,23.23
2019-03-09T07:09:14.595Z,17.53
2019-03-09T07:11:44.019Z,16.33
2019-03-09T07:14:49.565Z,27.17
2019-03-09T07:17:18.950Z,18.30
2019-03-09T07:19:48.297Z,20.23
2019-03-09T07:22:17.603Z,16.50
2019-03-09T07:24:47.052Z,18.53
2019-03-09T07:27:16.684Z,21.40
2019-03-09T07:29:46.071Z,22.17
2019-03-09T07:32:15.406Z,18.97
2019-03-09T07:34:44.782Z,17.17
2019-03-09T07:37:14.105Z,15.77
2019-03-09T07:39:43.455Z,15.40
2019-03-09T07:42:12.822Z,24.87
2019-03-09T07:44:42.159Z,17.13
2019-03-09T07:47:11.551Z,16.47
2019-03-09T07:49:40.926Z,21.00
2019-03-09T07:52:32.182Z,18.03
2019-03-09T07:55:01.530Z,23.03
2019-03-09T07:57:31.009Z,27.80
2019-03-09T08:00:00.441Z,25.33
2019-03-09T08:02:30.063Z,16.83
2019-03-09T08:04:59.346Z,25.97
2019-03-09T08:07:28.642Z,17.57
2019-03-09T08:09:57.967Z,22.80
2019-03-09T08:12:27.466Z,21.67
2019-03-09T08:14:56.856Z,15.13
2019-03-09T08:17:26.198Z,15.10
2019-03-09T08:19:55.555Z,16.63
2019-03-09T08:22:25.015Z,16.30
2019-03-09T08:24:54.351Z,22.50
2019-03-09T08:27:23.724Z,17.70
2019-03-09T08:32:28.543Z,23.57
2019-03-09T08:34:57.984Z,19.83
2019-03-09T08:37:27.338Z,18.23
2019-03-09T08:39:56.771Z,21.30
2019-03-09T08:42:26.226Z,17.17
2019-03-09T08:44:55.657Z,17.40
2019-03-09T08:47:25.040Z,18.87
2019-03-09T08:49:54.457Z,20.87
2019-03-09T08:52:23.889Z,13.53
2019-03-09T08:54:53.241Z,20.27
2019-03-09T08:57:22.677Z,18.13
2019-03-09T08:59:52.087Z,27.97
2019-03-09T09:02:21.562Z,20.87
2019-03-09T09:04:51.102Z,19.77
2019-03-09T09:07:20.453Z,15.87
2019-03-09T09:09:49.947Z,15.40
2019-03-09T09:12:19.279Z,16.03
2019-03-09T09:14:48.627Z,19.00
2019-03-09T09:17:17.975Z,21.57
2019-03-09T09:19:47.386Z,13.50
2019-03-09T09:22:16.853Z,17.27
2019-03-09T09:24:46.319Z,14.17
2019-03-09T09:27:15.719Z,14.80
2019-03-09T09:29:45.165Z,13.07
2019-03-09T09:32:14.601Z,16.67
2019-03-09T09:34:44.080Z,13.93
2019-03-09T09:37:13.457Z,16.07
2019-03-09T09:39:42.811Z,15.80
2019-03-09T09:42:12.167Z,15.43
2019-03-09T09:44:41.518Z,16.73
2019-03-09T09:47:10.819Z,18.83
2019-03-09T09:49:40.399Z,15.67
2019-03-09T09:52:09.800Z,18.00
2019-03-09T09:54:39.226Z,11.90
2019-03-09T09:57:08.706Z,20.37
2019-03-09T09:59:38.200Z,14.97
2019-03-09T10:02:07.574Z,14.13
2019-03-09T10:04:36.895Z,14.50
2019-03-09T10:07:06.360Z,14.80
2019-03-09T10:09:35.678Z,16.90
2019-03-09T10:12:05.181Z,15.50
2019-03-09T10:14:34.480Z,11.87
2019-03-09T10:17:03.841Z,8.47
2019-03-09T10:19:33.181Z,12.03
2019-03-09T10:22:02.578Z,11.23
2019-03-09T10:24:31.942Z,11.90
2019-03-09T10:27:01.231Z,12.43
2019-03-09T10:29:32.087Z,13.80
2019-03-09T10:32:01.566Z,13.40
2019-03-09T10:34:30.980Z,11.93
2019-03-09T10:37:00.405Z,13.53
2019-03-09T10:39:29.785Z,11.90
2019-03-09T10:41:59.144Z,10.30
2019-03-09T10:44:28.494Z,7.97
2019-03-09T10:46:57.874Z,11.97
2019-03-09T10:49:27.461Z,8.30
2019-03-09T10:51:56.838Z,9.10
2019-03-09T10:54:35.557Z,9.00
2019-03-09T10:56:57.235Z,8.67
2019-03-09T10:59:26.634Z,12.00
2019-03-09T11:01:56.129Z,10.37
2019-03-09T11:04:27.953Z,8.83
2019-03-09T11:06:56.590Z,10.03
2019-03-09T11:09:25.980Z,8.53
2019-03-09T11:11:55.399Z,8.60
2019-03-09T11:14:24.791Z,10.23
2019-03-09T11:16:54.143Z,8.87
2019-03-09T11:19:23.438Z,6.70
2019-03-09T11:21:52.784Z,5.17
2019-03-09T11:24:22.153Z,6.20
2019-03-09T11:26:51.593Z,7.37
2019-03-09T11:29:21.042Z,7.77
2019-03-09T11:31:51.455Z,12.97
2019-03-09T11:34:20.847Z,11.00
2019-03-09T11:36:50.398Z,6.20
2019-03-09T11:39:19.850Z,8.10
2019-03-09T11:41:49.243Z,7.70
2019-03-09T11:44:18.688Z,8.07
2019-03-09T11:46:48.082Z,7.77
2019-03-09T11:49:17.407Z,4.73
2019-03-09T11:51:46.870Z,13.20
2019-03-09T11:54:16.181Z,6.40
2019-03-09T11:56:45.484Z,7.30
2019-03-09T11:59:14.940Z,7.43
2019-03-09T12:01:44.387Z,7.60
2019-03-09T12:04:13.693Z,5.83
2019-03-09T12:06:43.105Z,7.13
2019-03-09T12:09:12.538Z,8.33
2019-03-09T12:11:42.101Z,8.97
2019-03-09T12:14:11.571Z,4.00
2019-03-09T12:16:40.928Z,4.67
2019-03-09T12:19:10.567Z,6.13
2019-03-09T12:21:39.926Z,9.13
2019-03-09T12:24:16.446Z,5.17
2019-03-09T12:26:40.322Z,4.97
2019-03-09T12:29:09.806Z,6.33
2019-03-09T12:31:39.270Z,4.67
2019-03-09T12:34:08.600Z,7.13
2019-03-09T12:36:38.043Z,8.47
2019-03-09T12:39:09.551Z,12.43
2019-03-09T12:41:38.927Z,10.27
2019-03-09T12:44:08.290Z,6.60
2019-03-09T12:46:37.717Z,8.80
2019-03-09T12:49:07.027Z,6.97
2019-03-09T12:51:36.659Z,9.93
2019-03-09T12:54:05.958Z,11.83
2019-03-09T12:56:35.335Z,17.10
2019-03-09T12:59:04.763Z,7.53
2019-03-09T13:01:34.139Z,7.30
2019-03-09T13:04:03.471Z,8.33
2019-03-09T13:06:32.933Z,7.83
2019-03-09T13:09:02.314Z,8.20
2019-03-09T13:11:31.680Z,12.37
2019-03-09T13:14:01.150Z,10.93
2019-03-09T13:16:30.800Z,6.33
2019-03-09T13:19:00.146Z,7.17
2019-03-09T13:21:29.508Z,4.40
2019-03-09T13:23:58.814Z,5.87
2019-03-09T13:26:28.301Z,8.07
2019-03-09T13:28:57.654Z,7.47
2019-03-09T13:31:27.003Z,8.13
2019-03-09T13:33:56.310Z,6.10
2019-03-09T13:36:25.750Z,7.83
2019-03-09T13:38:55.106Z,4.63
2019-03-09T13:41:24.450Z,7.83
2019-03-09T13:43:53.845Z,6.27
2019-03-09T13:46:23.330Z,8.63
2019-03-09T13:48:52.742Z,9.83
2019-03-09T13:51:22.552Z,8.47
2019-03-09T13:53:51.968Z,7.23
2019-03-09T13:56:21.266Z,7.23
2019-03-09T13:58:50.653Z,9.93
2019-03-09T14:01:20.081Z,11.07
2019-03-09T14:03:49.445Z,11.03
2019-03-09T14:06:18.879Z,8.93
2019-03-09T14:08:48.295Z,11.53
2019-03-09T14:11:19.913Z,8.13
2019-03-09T14:13:49.243Z,12.13
2019-03-09T14:16:18.590Z,14.00
2019-03-09T14:18:47.999Z,11.63
2019-03-09T14:21:17.338Z,8.67
2019-03-09T14:23:46.694Z,12.67
2019-03-09T14:26:16.049Z,8.73
2019-03-09T14:28:45.393Z,11.43
2019-03-09T14:31:14.736Z,9.77
2019-03-09T14:33:44.150Z,14.13
2019-03-09T14:36:13.649Z,14.17
2019-03-09T14:38:43.108Z,9.00
2019-03-09T14:41:12.458Z,12.93
2019-03-09T14:43:41.818Z,10.57
2019-03-09T14:46:11.127Z,13.03
2019-03-09T14:48:40.614Z,6.30
2019-03-09T14:51:10.015Z,9.23
2019-03-09T14:53:39.497Z,6.97
2019-03-09T14:56:08.800Z,16.83
2019-03-09T14:58:38.050Z,12.80
2019-03-09T15:01:07.702Z,9.17
2019-03-09T15:03:37.073Z,11.73
2019-03-09T15:06:06.377Z,14.37
2019-03-09T15:08:35.747Z,5.50
2019-03-09T15:11:05.074Z,7.43
2019-03-09T15:13:34.453Z,6.73
2019-03-09T15:16:03.825Z,10.83
2019-03-09T15:18:33.174Z,12.10
2019-03-09T15:21:02.535Z,2.00
2019-03-09T15:23:31.880Z,4.63
2019-03-09T15:26:01.231Z,3.23
2019-03-09T15:28:30.603Z,3.03
2019-03-09T15:31:00.095Z,8.27
2019-03-09T15:33:29.563Z,13.20
2019-03-09T15:35:59.027Z,4.43
2019-03-09T15:38:28.454Z,9.87
2019-03-09T15:40:57.834Z,4.70
2019-03-09T15:43:27.274Z,6.40
2019-03-09T15:45:56.710Z,5.57
2019-03-09T15:48:26.231Z,9.17
2019-03-09T15:50:55.655Z,5.60
2019-03-09T15:53:25.247Z,4.80
2019-03-09T15:55:54.814Z,8.87
2019-03-09T15:58:24.205Z,7.57
2019-03-09T16:00:53.514Z,7.30
2019-03-09T16:03:22.993Z,12.70
2019-03-09T16:05:52.383Z,5.93
2019-03-09T16:08:21.789Z,7.73
2019-03-09T16:10:51.388Z,6.97
2019-03-09T16:13:20.738Z,8.77
2019-03-09T16:15:50.163Z,8.27
2019-03-09T16:18:19.609Z,5.53
2019-03-09T16:20:48.949Z,7.20
2019-03-09T16:23:18.236Z,7.13
2019-03-09T16:25:47.585Z,7.90
2019-03-09T16:28:17.108Z,6.90
2019-03-09T16:30:46.594Z,7.70
2019-03-09T16:33:15.947Z,5.33
2019-03-09T16:35:45.414Z,11.47
2019-03-09T16:38:14.853Z,9.53
2019-03-09T16:40:44.282Z,11.47
2019-03-09T16:43:13.663Z,4.83
2019-03-09T16:45:43.014Z,6.07
2019-03-09T16:48:12.364Z,4.53
2019-03-09T16:50:41.810Z,7.03
2019-03-09T16:53:11.159Z,8.57
2019-03-09T16:55:40.518Z,18.23
2019-03-09T16:58:09.921Z,11.57
2019-03-09T17:00:39.542Z,14.57
2019-03-09T17:03:08.953Z,10.93
2019-03-09T17:05:38.280Z,16.33
2019-03-09T17:08:07.638Z,14.37
2019-03-09T17:10:37.032Z,14.83
2019-03-09T17:13:06.413Z,13.40
2019-03-09T17:15:35.843Z,17.53
2019-03-09T17:18:05.450Z,15.97
2019-03-09T17:20:34.843Z,15.07
2019-03-09T17:23:05.781Z,17.07
2019-03-09T17:25:35.215Z,7.77
2019-03-09T17:28:04.600Z,19.60
2019-03-09T17:30:33.938Z,17.97
2019-03-09T17:33:03.352Z,16.47
2019-03-09T17:35:33.329Z,14.67
2019-03-09T17:38:02.687Z,11.87
2019-03-09T17:40:32.209Z,12.07
2019-03-09T17:43:01.604Z,11.73
2019-03-09T17:45:31.026Z,10.07
2019-03-09T17:48:00.406Z,13.20
2019-03-09T17:50:29.762Z,6.97
2019-03-09T17:52:59.114Z,11.30
2019-03-09T17:55:28.502Z,7.80
2019-03-09T17:57:57.862Z,8.47
2019-03-09T18:00:28.222Z,12.13
2019-03-09T18:02:57.992Z,11.67
2019-03-09T18:05:27.335Z,21.50
2019-03-09T18:07:56.749Z,13.60
2019-03-09T18:10:36.000Z,19.83
2019-03-09T18:13:05.588Z,18.30
2019-03-09T18:15:35.011Z,18.07
2019-03-09T18:18:04.570Z,17.03
2019-03-09T18:20:35.108Z,16.93
2019-03-09T18:23:04.372Z,17.63
2019-03-09T18:25:33.728Z,17.07
2019-03-09T18:28:03.126Z,19.47
2019-03-09T18:30:32.471Z,23.87
2019-03-09T18:33:01.847Z,30.80
2019-03-09T18:35:31.171Z,25.90
2019-03-09T18:38:00.502Z,24.83
2019-03-09T18:40:30.116Z,25.00
2019-03-09T18:42:59.392Z,25.47
2019-03-09T18:45:28.834Z,30.67
2019-03-09T18:47:58.282Z,26.87
2019-03-09T18:50:27.652Z,30.80
2019-03-09T18:52:57.055Z,28.37
2019-03-09T18:55:26.579Z,25.20
2019-03-09T18:57:56.021Z,32.83
2019-03-09T19:00:25.351Z,33.73
2019-03-09T19:02:54.711Z,25.23
2019-03-09T19:05:24.046Z,31.00
2019-03-09T19:07:53.422Z,23.10
2019-03-09T19:10:22.890Z,24.07
2019-03-09T19:12:52.256Z,30.80
2019-03-09T19:15:21.667Z,40.47
2019-03-09T19:17:51.024Z,22.40
2019-03-09T19:20:20.378Z,29.77
2019-03-09T19:22:49.727Z,21.20
2019-03-09T19:25:19.233Z,25.20
2019-03-09T19:27:49.031Z,32.70
2019-03-09T19:30:18.360Z,32.43
2019-03-09T19:32:47.854Z,35.90
2019-03-09T19:35:17.234Z,32.43
2019-03-09T19:37:46.638Z,23.37
2019-03-09T19:40:16.243Z,28.30
2019-03-09T19:42:48.793Z,28.03
2019-03-09T19:45:18.206Z,22.87
2019-03-09T19:47:47.733Z,31.77
2019-03-09T19:50:17.952Z,36.03
2019-03-09T19:52:47.313Z,42.60
2019-03-09T19:55:16.807Z,28.80
2019-03-09T19:57:46.228Z,29.63
2019-03-09T20:00:15.932Z,41.60
2019-03-09T20:02:45.452Z,93.03
2019-03-09T20:05:14.914Z,160.13
2019-03-09T20:07:44.329Z,120.93
2019-03-09T20:10:14.289Z,68.13
2019-03-09T20:12:43.729Z,36.53
2019-03-09T20:15:14.046Z,39.07
2019-03-09T20:17:45.658Z,40.07
2019-03-09T20:20:15.194Z,60.63
2019-03-09T20:22:44.798Z,27.33
2019-03-09T20:25:14.412Z,33.40
2019-03-09T20:27:43.862Z,36.50
2019-03-09T20:30:13.811Z,38.47
2019-03-09T20:32:43.122Z,31.20
2019-03-09T20:35:12.572Z,47.00
2019-03-09T20:37:42.021Z,35.70
2019-03-09T20:40:11.906Z,36.47
2019-03-09T20:42:41.367Z,19.47
2019-03-09T20:45:14.717Z,37.67
2019-03-09T20:47:43.717Z,27.57
2019-03-09T20:50:14.234Z,35.10
2019-03-09T20:52:43.555Z,28.53
2019-03-09T20:55:33.375Z,35.87
2019-03-09T20:58:02.827Z,34.53
2019-03-09T21:00:32.218Z,39.57
2019-03-09T21:03:01.534Z,34.80
2019-03-09T21:05:30.911Z,38.30
2019-03-09T21:08:00.336Z,36.60
2019-03-09T21:10:29.675Z,31.27
2019-03-09T21:13:01.269Z,32.97
2019-03-09T21:15:30.687Z,37.97
2019-03-09T21:18:00.053Z,41.20
2019-03-09T21:20:29.499Z,30.20
2019-03-09T21:22:58.971Z,29.67
2019-03-09T21:25:28.430Z,30.27
2019-03-09T21:27:57.899Z,21.23
2019-03-09T21:30:27.319Z,24.40
2019-03-09T21:32:56.780Z,20.57
2019-03-09T21:35:26.243Z,25.03
2019-03-09T21:37:55.610Z,26.47
2019-03-09T21:40:25.026Z,21.63
2019-03-09T21:42:54.470Z,19.07
2019-03-09T21:45:23.812Z,13.57
2019-03-09T21:47:53.166Z,11.30
2019-03-09T21:50:23.608Z,14.57
2019-03-09T21:52:52.944Z,12.93
2019-03-09T21:55:22.292Z,11.23
2019-03-09T21:57:51.639Z,10.07
2019-03-09T22:00:21.389Z,9.33
2019-03-09T22:02:50.854Z,14.23
2019-03-09T22:05:20.328Z,13.27
2019-03-09T22:07:49.757Z,9.90
2019-03-09T22:10:19.114Z,9.63
2019-03-09T22:12:48.558Z,10.03
2019-03-09T22:15:18.105Z,9.23
2019-03-09T22:17:47.528Z,9.73
2019-03-09T22:20:16.884Z,12.67
2019-03-09T22:22:46.442Z,13.40
2019-03-09T22:25:15.788Z,9.50
2019-03-09T22:27:45.119Z,7.93
2019-03-09T22:30:14.489Z,11.90
2019-03-09T22:32:44.058Z,9.03
2019-03-09T22:35:14.043Z,10.70
2019-03-09T22:37:43.449Z,8.47
2019-03-09T22:40:12.757Z,14.17
2019-03-09T22:42:42.201Z,7.77
2019-03-09T22:45:16.370Z,8.67
2019-03-09T22:47:45.861Z,11.27
2019-03-09T22:50:16.218Z,9.37
2019-03-09T22:52:45.742Z,11.23
2019-03-09T22:55:15.851Z,10.90
2019-03-09T22:57:45.273Z,10.93
2019-03-09T23:00:16.762Z,8.97
2019-03-09T23:02:46.129Z,10.13
2019-03-09T23:05:15.714Z,8.20
2019-03-09T23:07:45.041Z,12.23
2019-03-09T23:10:15.742Z,12.13
2019-03-09T23:12:45.066Z,10.67
2019-03-09T23:15:15.176Z,12.77
2019-03-09T23:17:44.864Z,18.73
2019-03-09T23:20:15.772Z,14.77
2019-03-09T23:22:46.258Z,16.77
2019-03-09T23:25:16.132Z,11.13
2019-03-09T23:27:45.512Z,10.70
2019-03-09T23:30:16.249Z,12.30
2019-03-09T23:32:45.863Z,12.30
2019-03-09T23:35:24.207Z,14.47
2019-03-09T23:37:53.510Z,13.53
2019-03-09T23:40:23.140Z,17.47
2019-03-09T23:42:52.827Z,16.63
2019-03-09T23:45:22.502Z,16.80
2019-03-09T23:47:51.838Z,17.67
2019-03-09T23:50:21.553Z,16.40
2019-03-09T23:52:51.238Z,17.77
2019-03-09T23:55:22.999Z,15.50
2019-03-09T23:57:51.798Z,15.50
